createdAt,value
2024-04-21T00:07:51.163Z,99890.53
2024-04-21T00:17:53.108Z,99887.88
2024-04-21T00:27:59.232Z,99880.03
2024-04-21T00:38:01.328Z,99881.53
2024-04-21T00:48:03.346Z,99880.47
2024-04-21T00:58:08.806Z,99869.25
2024-04-21T01:08:13.608Z,99867.63
2024-04-21T01:18:15.719Z,99876.91
2024-04-21T01:28:20.561Z,99877.69
2024-04-21T01:38:22.550Z,99875.91
2024-04-21T01:48:24.469Z,99889.38
2024-04-21T01:58:26.463Z,99873.19
2024-04-21T02:08:28.472Z,99872.16
2024-04-21T02:18:30.448Z,99872.91
2024-04-21T02:28:32.460Z,99871.91
2024-04-21T02:38:34.351Z,99858.09
2024-04-21T02:48:36.378Z,99863.00
2024-04-21T02:58:38.319Z,99864.72
2024-04-21T03:08:43.491Z,99855.41
2024-04-21T03:18:47.485Z,99850.09
2024-04-21T03:28:51.482Z,99833.03
2024-04-21T03:38:53.483Z,99836.28
2024-04-21T03:48:56.530Z,99843.13
2024-04-21T03:58:58.554Z,99845.59
2024-04-21T04:09:00.656Z,99832.94
2024-04-21T04:19:02.707Z,99836.31
2024-04-21T04:29:04.957Z,99853.44
2024-04-21T04:39:09.037Z,99844.22
2024-04-21T04:49:11.025Z,99866.59
2024-04-21T04:59:13.039Z,99861.72
2024-04-21T05:09:15.121Z,99870.38
2024-04-21T05:19:17.328Z,99879.16
2024-04-21T05:29:19.377Z,99872.50
2024-04-21T05:39:23.909Z,99876.13
2024-04-21T05:49:29.841Z,99875.56
2024-04-21T05:59:33.006Z,99881.91
2024-04-21T06:09:38.877Z,99884.59
2024-04-21T06:19:41.326Z,99886.56
2024-04-21T06:29:43.492Z,99887.50
2024-04-21T06:39:45.592Z,99885.09
2024-04-21T06:49:50.867Z,99889.44
2024-04-21T06:59:56.295Z,99879.19
2024-04-21T07:09:58.288Z,99881.72
2024-04-21T07:20:01.971Z,99887.66
2024-04-21T07:30:04.287Z,99889.28
2024-04-21T07:40:07.497Z,99901.78
2024-04-21T07:50:10.507Z,99901.50
2024-04-21T08:00:13.117Z,99885.56
2024-04-21T08:10:16.498Z,99884.69
2024-04-21T08:20:19.388Z,99881.47
2024-04-21T08:30:21.495Z,99890.66
2024-04-21T08:40:24.430Z,99892.19
2024-04-21T08:50:27.901Z,99888.41
2024-04-21T09:00:32.953Z,99882.63
2024-04-21T09:10:38.705Z,99877.22
2024-04-21T09:20:48.974Z,99880.41
2024-04-21T09:30:54.079Z,99859.31
2024-04-21T09:40:58.231Z,99855.97
2024-04-21T09:51:00.551Z,99848.25
2024-04-21T10:01:09.386Z,99834.66
2024-04-21T10:11:11.650Z,99839.78
2024-04-21T10:21:15.897Z,99830.97
2024-04-21T10:31:28.639Z,99820.41
2024-04-21T10:41:37.850Z,99806.34
2024-04-21T10:51:41.256Z,99799.34
2024-04-21T11:01:43.292Z,99802.00
2024-04-21T11:11:45.162Z,99787.59
2024-04-21T11:21:47.263Z,99787.03
2024-04-21T11:31:49.489Z,99778.06
2024-04-21T11:41:51.741Z,99773.31
2024-04-21T11:51:56.382Z,99762.06
2024-04-21T12:01:58.812Z,99747.47
2024-04-21T12:12:00.747Z,99735.47
2024-04-21T12:22:02.970Z,99732.06
2024-04-21T12:32:05.243Z,99726.50
2024-04-21T12:42:08.234Z,99722.28
2024-04-21T12:52:10.911Z,99723.53
2024-04-21T13:02:17.569Z,99720.94
2024-04-21T13:12:20.943Z,99702.47
2024-04-21T13:22:22.866Z,99701.06
2024-04-21T13:32:24.965Z,99702.91
2024-04-21T13:42:27.053Z,99700.06
2024-04-21T13:52:30.235Z,99710.16
2024-04-21T14:02:33.239Z,99712.13
2024-04-21T14:12:35.217Z,99715.47
2024-04-21T14:22:37.191Z,99718.56
2024-04-21T14:32:39.363Z,99724.22
2024-04-21T14:42:44.593Z,99726.38
2024-04-21T14:52:50.625Z,99735.34
2024-04-21T15:02:53.620Z,99745.56
2024-04-21T15:12:57.796Z,99738.28
2024-04-21T15:23:00.854Z,99746.69
2024-04-21T15:33:02.819Z,99756.94
2024-04-21T15:43:08.042Z,99758.06
2024-04-21T15:53:10.411Z,99750.16
2024-04-21T16:03:12.281Z,99751.31
2024-04-21T16:13:20.198Z,99764.28
2024-04-21T16:23:28.734Z,99767.41
2024-04-21T16:33:31.199Z,99780.84
2024-04-21T16:43:35.234Z,99800.09
2024-04-21T16:53:37.611Z,99803.63
2024-04-21T17:03:39.890Z,99817.50
2024-04-21T17:13:44.948Z,99825.66
2024-04-21T17:23:47.719Z,99831.94
2024-04-21T17:33:49.731Z,99829.03
2024-04-21T17:43:52.411Z,99832.53
2024-04-21T17:53:54.675Z,99832.53
2024-04-21T18:03:56.617Z,99856.13
2024-04-21T18:13:58.647Z,99881.16
2024-04-21T18:24:00.513Z,99887.56
2024-04-21T18:34:02.539Z,99915.28
2024-04-21T18:44:07.063Z,99930.84
2024-04-21T18:54:09.238Z,99953.16
2024-04-21T19:04:13.193Z,99963.41
2024-04-21T19:14:16.191Z,99970.97
2024-04-21T19:24:18.880Z,99962.44
2024-04-21T19:34:20.810Z,99965.03
2024-04-21T19:44:23.906Z,99979.03
2024-04-21T19:54:30.152Z,99969.50
2024-04-21T20:04:34.080Z,99980.78
2024-04-21T20:14:54.400Z,99979.03
2024-04-21T20:24:58.515Z,99980.88
2024-04-21T20:35:01.084Z,99992.97
2024-04-21T20:45:03.452Z,100004.16
2024-04-21T20:55:06.821Z,100001.56
2024-04-21T21:05:08.823Z,100005.34
2024-04-21T21:15:10.860Z,100014.09
2024-04-21T21:25:13.772Z,100015.13
2024-04-21T21:35:17.716Z,100026.41
2024-04-21T21:45:22.007Z,100035.78
2024-04-21T21:55:25.377Z,100039.34
2024-04-21T22:05:27.415Z,100041.94
2024-04-21T22:15:30.264Z,100047.97
2024-04-21T22:25:32.260Z,100061.81
2024-04-21T22:35:34.315Z,100053.25
2024-04-21T22:45:36.252Z,100059.25
2024-04-21T22:55:38.165Z,100066.97
2024-04-21T23:05:41.347Z,100065.25
2024-04-21T23:15:43.246Z,100078.13
2024-04-21T23:25:46.236Z,100076.44
2024-04-21T23:35:50.159Z,100072.13
2024-04-21T23:45:53.609Z,100067.84
2024-04-21T23:55:55.489Z,100069.56
